METAR Data
IDs: Format: Raw Decoded Include TAF

Data at: 1615 UTC 21 Sep 2018

KOWD 211553Z 17009KT 10SM CLR 22/12 A3022 RMK AO2 SLP231 T02170122
KOWD 211453Z VRB05KT 10SM BKN060 21/12 A3024 RMK AO2 SLP241 T02060117 58019
KOWD 211353Z 14008KT 10SM FEW090 19/11 A3028 RMK AO2 SLP252 T01940111
KOWD 211253Z 16004KT 10SM BKN095 18/13 A3029 RMK AO2 SLP258 T01830133
KOWD 211153Z 16004KT 10SM BKN060 17/14 A3030 RMK AO2 SLP260 T01670144 10167 20150 50007
KOWD 211053Z 17003KT 10SM BKN110 15/14 A3030 RMK AO2 SLP261 T01500144
KOWD 210953Z AUTO 00000KT 10SM OVC110 16/14 A3029 RMK AO2 SLP257 T01560144
KOWD 210853Z AUTO 00000KT 10SM CLR 16/14 A3028 RMK AO2 SLP253 T01560144 56005
KOWD 210753Z AUTO 00000KT 10SM BKN060 16/14 A3028 RMK AO2 SLP254 T01560144
KOWD 210653Z AUTO 00000KT 10SM OVC060 16/14 A3028 RMK AO2 SLP254 T01560144
KOWD 210553Z AUTO 00000KT 10SM CLR 16/14 A3030 RMK AO2 SLP258 T01560139 10172 20156 50004
KOWD 210453Z AUTO 00000KT 10SM FEW110 16/14 A3030 RMK AO2 SLP261 T01560139 402060156
KOWD 210353Z AUTO 00000KT 10SM CLR 16/14 A3030 RMK AO2 SLP260 T01560139
KOWD 210253Z AUTO 00000KT 10SM CLR 16/14 A3028 RMK AO2 SLP254 T01610139 50003
KOWD 210153Z 00000KT 10SM BKN050 17/14 A3029 RMK AO2 SLP256 T01670139
KOWD 210053Z 09003KT 10SM OVC050 17/14 A3029 RMK AO2 SLP257 T01720139
KOWD 202353Z 04003KT 10SM OVC048 17/14 A3028 RMK AO2 SLP251 T01720144 10200 20172 51009
KOWD 202253Z 08004KT 10SM OVC047 18/14 A3027 RMK AO2 SLP251 T01780139
KOWD 202153Z 10007KT 10SM FEW021 18/13 A3025 RMK AO2 SLP244 T01830133
KOWD 202110Z 06006KT 10SM FEW023 BKN030 18/13 A3024 RMK AO2 T01830133
KOWD 202053Z 05006KT 10SM BKN026 19/13 A3025 RMK AO2 SLP242 T01890133 53000
KOWD 202000Z 07008KT 10SM BKN022 BKN050 19/13 A3024 RMK AO2 T01890133
KOWD 201953Z 08008KT 10SM SCT022 BKN050 19/13 A3024 RMK AO2 SLP241 T01940133
KOWD 201853Z 05006KT 10SM SCT020 SCT025 OVC050 19/14 A3024 RMK AO2 SLP241 T01940139
KOWD 201832Z 04006KT 10SM BKN021 BKN026 OVC050 19/14 A3024 RMK AO2 T01940139
KOWD 201753Z 07008KT 10SM SCT021 OVC046 19/14 A3025 RMK AO2 SLP242 60000 T01940139 10206 20172 58007
KOWD 201744Z 05007KT 020V090 10SM BKN019 OVC044 19/14 A3025 RMK AO2 T01940139
KOWD 201737Z 04008KT 10SM SCT021 OVC042 19/14 A3025 RMK AO2 T01940139
KOWD 201726Z 04007KT 360V070 10SM BKN019 OVC040 19/14 A3025 RMK AO2 T01890139
KOWD 201653Z 05006KT 10SM FEW019 SCT025 OVC040 18/14 A3026 RMK AO2 RAB1555E04B39E48 SLP247 P0000 T01830139
KOWD 201649Z 05006KT 10SM FEW019 BKN024 OVC040 18/14 A3026 RMK AO2 RAB1555E04B39E48 P0000
KOWD 201616Z 04007KT 360V070 10SM FEW019 SCT026 OVC035 18/14 A3027 RMK AO2 RAB1555E04 P0000 T01830139
KOWD 201553Z 06008KT 10SM OVC021 18/14 A3027 RMK AO2 SLP249 T01830139
KOWD 201539Z 05008KT 10SM BKN022 BKN027 OVC044 19/14 A3026 RMK AO2 T01890139
KOWD 201516Z 04007KT 10SM SCT022 OVC045 19/14 A3025 RMK AO2 T01940139
KOWD 201453Z 36005KT 10SM SCT021 BKN029 19/13 A3025 RMK AO2 SLP244 T01940133 51014
KOWD 201405Z 05007KT 10SM SCT021 BKN029 19/14 A3025 RMK AO2 T01940144
KOWD 201353Z 06010KT 10SM SCT026 BKN031 19/14 A3024 RMK AO2 SLP239 T01940144
KOWD 201343Z 06008KT 10SM FEW022 BKN031 19/14 A3024 RMK AO2 T01890139
KOWD 201253Z VRB05KT 10SM FEW016 OVC026 18/14 A3021 RMK AO2 SLP230 T01830144
KOWD 201227Z 01006KT 10SM FEW015 BKN027 18/14 A3021 RMK AO2 T01780144
KOWD 201153Z 02006KT 10SM SCT026 BKN031 18/14 A3019 RMK AO2 SLP223 T01780144 10178 20156 53021
KOWD 201053Z 04006KT 10SM OVC023 17/14 A3017 RMK AO2 SLP215 T01670144
KOWD 201008Z AUTO 01003KT 10SM OVC015 16/14 A3014 RMK AO2 T01610144
KOWD 200953Z AUTO 04004KT 10SM BKN014 16/14 A3014 RMK AO2 SLP205 T01610139
KOWD 200942Z AUTO 35003KT 10SM BKN015 16/14 A3014 RMK AO2 T01610139
KOWD 200853Z AUTO 36004KT 10SM CLR 16/14 A3013 RMK AO2 SLP201 T01610139 52004
KOWD 200813Z AUTO 04004KT 10SM FEW015 SCT023 SCT055 16/14 A3012 RMK AO2 T01560139
KOWD 200753Z AUTO 35003KT 10SM BKN017 BKN024 BKN029 16/14 A3013 RMK AO2 SLP201 T01610139
KOWD 200653Z AUTO 00000KT 10SM BKN017 BKN025 16/14 A3012 RMK AO2 SLP198 T01610139
KOWD 200553Z AUTO 34003KT 10SM SCT055 16/13 A3011 RMK AO2 SLP196 T01610133 10178 20161 51012
KOWD 200527Z AUTO 02004KT 10SM SCT029 SCT055 17/13 A3011 RMK AO2 T01670133
KOWD 200453Z AUTO 01004KT 10SM OVC028 17/13 A3011 RMK AO2 SLP195 T01720133 402170161